Legazpi City International Airport


Codes: RPLP/LGP
Name: Legazpi City International Airport
City: Legazpi City
Country: Philippines
Elevation: 66 ft.
Wikipedia:

Photos at Legazpi City International Airport


   Photos courtesy of SpottingLog. You can add your own sightings and photos by signing up for a free trial today.



No photos found.

Weather at Legazpi City International Airport


Time (UTC)DescriptionTempratureWindCloud coverageVisibilityPressureHumidity
19-Apr-2024 06:00Broken Clouds32°C9 mph, NE80%10000m1010hPa50%
19-Apr-2024 09:00Broken Clouds30°C7 mph, NE64%10000m1010hPa62%
19-Apr-2024 12:00Scattered Clouds25°C7 mph, NE34%10000m1011hPa91%
19-Apr-2024 15:00Scattered Clouds25°C7 mph, NE34%10000m1011hPa92%
19-Apr-2024 18:00Light Rain25°C4 mph, NE69%10000m1010hPa94%
19-Apr-2024 21:00Light Rain24°C4 mph, NE88%10000m1011hPa93%
20-Apr-2024 00:00Light Rain28°C4 mph, NE95%10000m1012hPa74%
20-Apr-2024 03:00Broken Clouds32°C9 mph, NE67%10000m1012hPa51%
20-Apr-2024 06:00Broken Clouds32°C9 mph, NE66%10000m1009hPa47%
20-Apr-2024 09:00Overcast Clouds29°C7 mph, NE89%10000m1009hPa63%
20-Apr-2024 12:00Broken Clouds25°C7 mph, NE72%10000m1011hPa87%
20-Apr-2024 15:00Few Clouds25°C4 mph, NE15%10000m1012hPa89%
20-Apr-2024 18:00Broken Clouds25°C4 mph, NE59%10000m1010hPa93%
20-Apr-2024 21:00Light Rain25°C4 mph, NE98%10000m1010hPa92%
21-Apr-2024 00:00Broken Clouds29°C7 mph, NE73%10000m1012hPa67%
21-Apr-2024 03:00Light Rain32°C11 mph, NE19%10000m1011hPa58%
21-Apr-2024 06:00Scattered Clouds32°C9 mph, NE26%10000m1009hPa56%
21-Apr-2024 09:00Few Clouds29°C7 mph, NE13%10000m1009hPa72%
21-Apr-2024 12:00Light Rain26°C7 mph, NE10%10000m1011hPa91%
21-Apr-2024 15:00Few Clouds26°C7 mph, NE22%10000m1011hPa92%
21-Apr-2024 18:00Light Rain25°C7 mph, NE56%10000m1010hPa95%
21-Apr-2024 21:00Light Rain26°C4 mph, NE98%10000m1010hPa92%
22-Apr-2024 00:00Light Rain28°C7 mph, NE99%10000m1012hPa81%
22-Apr-2024 03:00Light Rain31°C9 mph, NE99%10000m1011hPa63%
22-Apr-2024 06:00Light Rain32°C9 mph, NE91%10000m1009hPa59%
22-Apr-2024 09:00Broken Clouds29°C7 mph, NE81%10000m1009hPa72%
22-Apr-2024 12:00Broken Clouds27°C7 mph, NE78%10000m1010hPa87%
22-Apr-2024 15:00Overcast Clouds27°C4 mph, NE100%10000m1011hPa89%
22-Apr-2024 18:00Light Rain26°C4 mph, NE100%10000m1009hPa93%
22-Apr-2024 21:00Light Rain25°C4 mph, NE58%10000m1010hPa95%
23-Apr-2024 00:00Light Rain29°C4 mph, NE64%10000m1011hPa76%
23-Apr-2024 03:00Light Rain33°C9 mph, NE77%10000m1011hPa54%
23-Apr-2024 06:00Overcast Clouds33°C9 mph, NE87%10000m1008hPa49%
23-Apr-2024 09:00Overcast Clouds29°C7 mph, NE96%10000m1009hPa70%
23-Apr-2024 12:00Light Rain26°C4 mph, NE94%10000m1011hPa94%
23-Apr-2024 15:00Light Rain26°C4 mph, NE99%10000m1011hPa95%
23-Apr-2024 18:00Light Rain25°C4 mph, NE97%10000m1010hPa97%
23-Apr-2024 21:00Overcast Clouds25°C4 mph, NE100%10000m1010hPa96%
24-Apr-2024 00:00Overcast Clouds29°C4 mph, NE100%10000m1012hPa72%
24-Apr-2024 03:00Overcast Clouds33°C9 mph, NE100%10000m1011hPa53%